createdAt,value
2024-03-02T00:01:37.785Z,39.53
2024-03-02T00:04:08.458Z,30.33
2024-03-02T00:06:36.915Z,34.47
2024-03-02T00:09:05.461Z,30.20
2024-03-02T00:11:38.601Z,33.27
2024-03-02T00:14:07.106Z,29.40
2024-03-02T00:16:36.908Z,31.47
2024-03-02T00:19:06.855Z,32.50
2024-03-02T00:21:35.905Z,30.47
2024-03-02T00:24:16.200Z,31.10
2024-03-02T00:26:48.280Z,34.00
2024-03-02T00:29:20.521Z,31.70
2024-03-02T00:31:50.151Z,29.73
2024-03-02T00:34:22.395Z,32.07
2024-03-02T00:36:50.760Z,31.80
2024-03-02T00:39:19.710Z,33.83
2024-03-02T00:41:49.512Z,31.57
2024-03-02T00:44:21.516Z,31.83
2024-03-02T00:46:49.781Z,32.43
2024-03-02T00:49:23.503Z,31.20
2024-03-02T00:51:55.636Z,29.07
2024-03-02T00:54:26.479Z,32.37
2024-03-02T00:56:57.815Z,31.47
2024-03-02T00:59:26.256Z,31.53
2024-03-02T01:01:55.577Z,29.80
2024-03-02T01:04:23.919Z,27.27
2024-03-02T01:06:55.535Z,28.10
2024-03-02T01:09:23.836Z,31.83
2024-03-02T01:11:52.088Z,30.27
2024-03-02T01:14:22.469Z,28.33
2024-03-02T01:16:51.590Z,32.13
2024-03-02T01:19:19.888Z,29.17
2024-03-02T01:21:48.997Z,31.50
2024-03-02T01:24:18.598Z,31.40
2024-03-02T01:26:46.744Z,32.33
2024-03-02T01:29:15.440Z,31.23
2024-03-02T01:31:50.602Z,31.67
2024-03-02T01:34:18.816Z,29.13
2024-03-02T01:36:47.007Z,30.83
2024-03-02T01:39:16.571Z,29.33
2024-03-02T01:41:44.865Z,28.73
2024-03-02T01:44:17.525Z,30.67
2024-03-02T01:46:45.776Z,30.30
2024-03-02T01:49:16.481Z,27.53
2024-03-02T01:51:44.735Z,27.23
2024-03-02T01:54:16.617Z,30.93
2024-03-02T01:56:45.245Z,31.53
2024-03-02T01:59:14.613Z,28.10
2024-03-02T02:01:43.575Z,27.13
2024-03-02T02:04:12.588Z,27.97
2024-03-02T02:06:44.860Z,29.13
2024-03-02T02:09:14.377Z,31.07
2024-03-02T02:11:43.162Z,26.20
2024-03-02T02:14:14.649Z,24.70
2024-03-02T02:16:43.313Z,29.07
2024-03-02T02:19:14.239Z,26.63
2024-03-02T02:21:46.637Z,27.07
2024-03-02T02:24:14.844Z,26.37
2024-03-02T02:26:44.721Z,27.47
2024-03-02T02:29:12.971Z,27.03
2024-03-02T02:31:42.580Z,25.73
2024-03-02T02:34:11.247Z,25.17
2024-03-02T02:36:41.739Z,25.80
2024-03-02T02:39:13.278Z,27.10
2024-03-02T02:41:45.575Z,25.10
2024-03-02T02:44:14.309Z,26.83
2024-03-02T02:46:42.652Z,25.13
2024-03-02T02:49:11.689Z,27.27
2024-03-02T02:51:40.029Z,25.60
2024-03-02T02:54:08.314Z,24.40
2024-03-02T02:56:38.521Z,23.50
2024-03-02T02:59:06.742Z,24.47
2024-03-02T03:01:35.667Z,23.50
2024-03-02T03:04:03.865Z,24.07
2024-03-02T03:06:32.757Z,25.70
2024-03-02T03:09:04.621Z,24.97
2024-03-02T03:11:32.904Z,22.27
2024-03-02T03:14:03.559Z,22.60
2024-03-02T03:16:32.575Z,25.00
2024-03-02T03:19:00.802Z,23.47
2024-03-02T03:21:32.737Z,24.40
2024-03-02T03:24:02.646Z,26.57
2024-03-02T03:26:30.808Z,24.87
2024-03-02T03:29:00.538Z,23.13
2024-03-02T03:31:31.180Z,24.37
2024-03-02T03:34:03.353Z,23.60
2024-03-02T03:36:31.539Z,25.13
2024-03-02T03:39:00.618Z,24.03
2024-03-02T03:41:28.824Z,25.37
2024-03-02T03:43:57.341Z,22.30
2024-03-02T03:46:28.608Z,22.03
2024-03-02T03:48:58.166Z,24.67
2024-03-02T03:51:28.582Z,26.03
2024-03-02T03:53:56.819Z,24.87
2024-03-02T03:56:25.636Z,28.40
2024-03-02T03:58:56.611Z,23.40
2024-03-02T04:01:28.642Z,21.60
2024-03-02T04:03:58.799Z,24.27
2024-03-02T04:06:27.059Z,24.40
2024-03-02T04:08:56.524Z,24.57
2024-03-02T04:11:24.773Z,24.27
2024-03-02T04:13:59.059Z,22.77
2024-03-02T04:16:27.444Z,25.33
2024-03-02T04:19:05.299Z,23.30
2024-03-02T04:21:33.756Z,23.60
2024-03-02T04:24:03.532Z,25.10
2024-03-02T04:26:31.869Z,23.37
2024-03-02T04:29:02.992Z,24.03
2024-03-02T04:31:33.487Z,26.00
2024-03-02T04:34:03.271Z,25.37
2024-03-02T04:36:31.776Z,24.77
2024-03-02T04:39:00.112Z,25.10
2024-03-02T04:41:34.566Z,25.17
2024-03-02T04:44:03.215Z,24.97
2024-03-02T04:46:37.748Z,27.87
2024-03-02T04:49:08.679Z,25.80
2024-03-02T04:51:39.885Z,26.27
2024-03-02T04:54:11.354Z,24.50
2024-03-02T04:56:45.906Z,25.13
2024-03-02T04:59:15.516Z,24.17
2024-03-02T05:01:46.421Z,23.57
2024-03-02T05:04:16.210Z,25.57
2024-03-02T05:06:45.534Z,23.73
2024-03-02T05:09:14.549Z,25.50
2024-03-02T05:12:00.424Z,24.90
2024-03-02T05:14:29.565Z,24.57
2024-03-02T05:16:57.778Z,24.13
2024-03-02T05:19:32.594Z,22.90
2024-03-02T05:22:04.499Z,25.43
2024-03-02T05:24:33.597Z,24.13
2024-03-02T05:27:01.832Z,24.27
2024-03-02T05:29:30.931Z,27.10
2024-03-02T05:31:59.086Z,25.53
2024-03-02T05:34:28.593Z,25.37
2024-03-02T05:36:58.948Z,25.03
2024-03-02T05:39:27.454Z,25.07
2024-03-02T05:41:59.985Z,25.10
2024-03-02T05:44:28.317Z,24.53
2024-03-02T05:46:56.559Z,24.37
2024-03-02T05:49:25.640Z,24.97
2024-03-02T05:51:53.941Z,28.83
2024-03-02T05:54:26.183Z,27.17
2024-03-02T05:56:55.067Z,26.73
2024-03-02T05:59:24.595Z,24.30
2024-03-02T06:01:53.705Z,27.23
2024-03-02T06:04:21.854Z,26.03
2024-03-02T06:06:54.742Z,24.30
2024-03-02T06:09:26.043Z,25.23
2024-03-02T06:11:57.604Z,25.27
2024-03-02T06:14:29.504Z,28.10
2024-03-02T06:16:58.434Z,26.60
2024-03-02T06:19:27.638Z,26.57
2024-03-02T06:21:56.101Z,27.13
2024-03-02T06:24:30.110Z,24.80
2024-03-02T06:26:57.375Z,22.83
2024-03-02T06:29:26.630Z,22.97
2024-03-02T06:31:55.532Z,24.63
2024-03-02T06:34:28.269Z,25.27
2024-03-02T06:36:57.182Z,30.27
2024-03-02T06:39:27.987Z,25.20
2024-03-02T06:41:56.664Z,26.03
2024-03-02T06:44:25.019Z,23.07
2024-03-02T06:46:53.341Z,26.50
2024-03-02T06:49:26.682Z,24.47
2024-03-02T06:51:54.920Z,25.33
2024-03-02T06:54:23.206Z,25.47
2024-03-02T06:56:52.735Z,24.97
2024-03-02T06:59:20.893Z,26.17
2024-03-02T07:01:54.411Z,24.10
2024-03-02T07:04:22.604Z,24.73
2024-03-02T07:06:51.769Z,24.70
2024-03-02T07:09:23.756Z,24.23
2024-03-02T07:11:53.463Z,25.33
2024-03-02T07:14:21.709Z,24.43
2024-03-02T07:16:50.195Z,25.13
2024-03-02T07:19:18.697Z,25.47
2024-03-02T07:21:46.907Z,23.03
2024-03-02T07:24:17.589Z,21.07
2024-03-02T07:26:55.065Z,27.20
2024-03-02T07:29:23.451Z,24.90
2024-03-02T07:31:51.673Z,22.43
2024-03-02T07:34:19.882Z,23.10
2024-03-02T07:36:48.121Z,25.77
2024-03-02T07:39:17.875Z,22.87
2024-03-02T07:41:47.758Z,22.57
2024-03-02T07:44:17.452Z,22.27
2024-03-02T07:46:46.023Z,22.17
2024-03-02T07:49:14.885Z,20.87
2024-03-02T07:51:46.130Z,23.20
2024-03-02T07:54:14.280Z,24.67
2024-03-02T07:56:42.637Z,22.23
2024-03-02T07:59:11.148Z,21.90
2024-03-02T08:01:42.330Z,26.90
2024-03-02T08:04:11.716Z,22.30
2024-03-02T08:06:39.991Z,23.33
2024-03-02T08:09:11.663Z,23.67
2024-03-02T08:11:40.075Z,27.33
2024-03-02T08:14:08.218Z,25.15
2024-03-02T08:16:36.560Z,20.93
2024-03-02T08:19:06.252Z,23.53
2024-03-02T08:21:38.578Z,27.30
2024-03-02T08:24:07.684Z,25.03
2024-03-02T08:26:36.418Z,24.13
2024-03-02T08:29:05.004Z,23.50
2024-03-02T08:31:33.236Z,22.53
2024-03-02T08:34:01.795Z,22.53
2024-03-02T08:36:31.698Z,24.23
2024-03-02T08:39:00.133Z,27.57
2024-03-02T08:41:28.510Z,25.10
2024-03-02T08:43:57.654Z,24.77
2024-03-02T08:46:25.909Z,27.10
2024-03-02T08:48:54.179Z,21.07
2024-03-02T08:51:25.678Z,22.20
2024-03-02T08:53:58.972Z,26.87
2024-03-02T08:56:27.645Z,25.70
2024-03-02T08:58:56.125Z,25.63
2024-03-02T09:01:24.577Z,23.97
2024-03-02T09:03:53.737Z,22.20
2024-03-02T09:06:22.659Z,25.70
2024-03-02T09:08:53.129Z,26.70
2024-03-02T09:11:23.350Z,23.27
2024-03-02T09:13:51.604Z,22.37
2024-03-02T09:16:21.323Z,22.87
2024-03-02T09:18:53.584Z,29.57
2024-03-02T09:21:22.290Z,24.80
2024-03-02T09:23:50.584Z,26.03
2024-03-02T09:26:20.921Z,25.17
2024-03-02T09:28:50.520Z,24.67
2024-03-02T09:31:18.824Z,28.70
2024-03-02T09:33:49.776Z,26.47
2024-03-02T09:36:21.616Z,25.00
2024-03-02T09:38:50.342Z,25.37
2024-03-02T09:41:18.754Z,24.30
2024-03-02T09:43:47.189Z,25.63
2024-03-02T09:46:18.397Z,24.03
2024-03-02T09:48:47.777Z,23.90
2024-03-02T09:51:16.479Z,22.90
2024-03-02T09:53:45.577Z,24.23
2024-03-02T09:56:14.705Z,25.17
2024-03-02T09:58:46.728Z,26.30
2024-03-02T10:01:15.911Z,23.40
2024-03-02T10:03:51.360Z,26.13
2024-03-02T10:06:23.882Z,24.63
2024-03-02T10:08:57.601Z,25.87
2024-03-02T10:11:30.542Z,24.03
2024-03-02T10:14:10.348Z,24.23
2024-03-02T10:16:39.340Z,29.33
2024-03-02T10:19:22.215Z,28.17
2024-03-02T10:21:52.102Z,24.87
2024-03-02T10:24:21.063Z,25.13
2024-03-02T10:26:50.693Z,28.23
2024-03-02T10:29:19.498Z,22.93
2024-03-02T10:31:49.003Z,26.90
2024-03-02T10:34:17.485Z,23.13
2024-03-02T10:36:47.667Z,25.20
2024-03-02T10:39:17.099Z,24.20
2024-03-02T10:41:49.275Z,26.43
2024-03-02T10:44:18.948Z,26.37
2024-03-02T10:46:49.737Z,23.63
2024-03-02T10:49:18.282Z,26.60
2024-03-02T10:51:47.937Z,24.80
2024-03-02T10:54:17.426Z,25.33
2024-03-02T10:56:49.218Z,24.73
2024-03-02T10:59:30.451Z,26.00
2024-03-02T11:02:03.590Z,27.83
2024-03-02T11:04:38.307Z,26.53
2024-03-02T11:07:11.269Z,26.20
2024-03-02T11:09:46.599Z,26.57
2024-03-02T11:12:19.457Z,24.30
2024-03-02T11:14:49.505Z,28.33
2024-03-02T11:17:21.679Z,24.73
2024-03-02T11:19:52.734Z,29.63
2024-03-02T11:22:23.505Z,28.97
2024-03-02T11:24:53.532Z,30.10
2024-03-02T11:27:55.060Z,25.77
2024-03-02T11:30:58.361Z,26.57
2024-03-02T11:33:30.993Z,24.57
2024-03-02T11:36:07.147Z,26.13
2024-03-02T11:38:39.028Z,27.77
2024-03-02T11:44:06.730Z,26.30
2024-03-02T11:46:37.360Z,28.00
2024-03-02T11:49:06.965Z,27.57
2024-03-02T11:51:36.584Z,31.97
2024-03-02T11:54:08.570Z,28.23
2024-03-02T11:56:36.850Z,29.53
2024-03-02T11:59:05.273Z,32.20
2024-03-02T12:01:37.485Z,27.87
2024-03-02T12:04:09.146Z,29.00
2024-03-02T12:06:38.803Z,29.63
2024-03-02T12:09:12.582Z,29.50
2024-03-02T12:11:41.805Z,28.50
2024-03-02T12:14:14.880Z,30.07
2024-03-02T12:16:47.815Z,28.50
2024-03-02T12:19:17.036Z,30.90
2024-03-02T12:21:46.021Z,28.20
2024-03-02T12:24:15.950Z,32.03
2024-03-02T12:26:44.244Z,33.83
2024-03-02T12:29:14.487Z,29.73
2024-03-02T12:31:42.718Z,27.83
2024-03-02T12:34:11.939Z,28.40
2024-03-02T12:36:43.811Z,33.53
2024-03-02T12:39:12.191Z,27.50
2024-03-02T12:41:42.812Z,33.63
2024-03-02T12:44:11.364Z,29.57
2024-03-02T12:46:40.258Z,30.03
2024-03-02T12:49:12.023Z,29.13
2024-03-02T12:51:42.177Z,31.33
2024-03-02T12:54:11.852Z,32.23
2024-03-02T12:56:46.751Z,29.90
2024-03-02T12:59:22.566Z,30.37
2024-03-02T13:01:54.278Z,30.37
2024-03-02T13:04:26.759Z,27.47
2024-03-02T13:06:55.865Z,30.30
2024-03-02T13:09:24.182Z,30.83
2024-03-02T13:11:54.007Z,27.60
2024-03-02T13:14:26.154Z,31.90
2024-03-02T13:16:54.741Z,29.27
2024-03-02T13:19:23.203Z,31.33
2024-03-02T13:21:52.930Z,31.83
2024-03-02T13:24:21.677Z,31.53
2024-03-02T13:26:53.652Z,31.03
2024-03-02T13:29:24.119Z,30.07
2024-03-02T13:31:53.759Z,30.40
2024-03-02T13:34:22.042Z,31.27
2024-03-02T13:36:50.254Z,30.97
2024-03-02T13:39:21.529Z,30.97
2024-03-02T13:41:53.878Z,30.07
2024-03-02T13:44:25.341Z,30.70
2024-03-02T13:46:56.334Z,31.33
2024-03-02T13:49:24.799Z,34.07
2024-03-02T13:51:53.300Z,30.20
2024-03-02T13:54:21.479Z,29.90
2024-03-02T13:56:49.782Z,32.00
2024-03-02T13:59:18.064Z,29.40
2024-03-02T14:01:48.974Z,29.33
2024-03-02T14:04:17.367Z,35.37
2024-03-02T14:06:47.334Z,32.17
2024-03-02T14:09:16.097Z,28.17
2024-03-02T14:11:44.333Z,29.73
2024-03-02T14:14:13.041Z,31.70
2024-03-02T14:16:41.588Z,33.70
2024-03-02T14:19:15.607Z,34.00
2024-03-02T14:21:44.931Z,28.83
2024-03-02T14:24:13.232Z,31.60
2024-03-02T14:26:41.921Z,29.67
2024-03-02T14:29:10.210Z,30.17
2024-03-02T14:31:38.796Z,31.33
2024-03-02T14:34:07.197Z,30.30
2024-03-02T14:36:37.884Z,30.00
2024-03-02T14:39:09.470Z,32.80
2024-03-02T14:41:37.827Z,31.50
2024-03-02T14:44:06.179Z,30.70
2024-03-02T14:46:35.885Z,31.03
2024-03-02T14:49:04.422Z,36.37
2024-03-02T14:51:32.942Z,31.23
2024-03-02T14:54:04.231Z,31.73
2024-03-02T14:56:39.481Z,32.17
2024-03-02T14:59:09.756Z,36.17
2024-03-02T15:01:42.327Z,33.53
2024-03-02T15:04:11.418Z,32.00
2024-03-02T15:06:41.220Z,35.27
2024-03-02T15:09:11.135Z,37.07
2024-03-02T15:11:45.302Z,32.03
2024-03-02T15:14:16.505Z,34.83
2024-03-02T15:19:38.036Z,31.50
2024-03-02T15:22:08.923Z,27.50
2024-03-02T15:24:38.683Z,30.07
2024-03-02T15:27:10.003Z,32.67
2024-03-02T15:29:38.317Z,31.37
2024-03-02T15:32:08.859Z,33.30
2024-03-02T15:34:40.700Z,32.27
2024-03-02T15:37:09.205Z,29.67
2024-03-02T15:39:38.966Z,32.47
2024-03-02T15:42:07.755Z,34.63
2024-03-02T15:44:36.030Z,34.50
2024-03-02T15:47:04.402Z,32.00
2024-03-02T15:49:33.248Z,28.57
2024-03-02T15:52:05.595Z,31.77
2024-03-02T15:54:33.970Z,32.97
2024-03-02T15:57:03.599Z,32.60
2024-03-02T15:59:36.543Z,36.03
2024-03-02T16:02:05.867Z,30.37
2024-03-02T16:04:34.729Z,32.20
2024-03-02T16:07:04.239Z,32.20
2024-03-02T16:09:32.633Z,33.47
2024-03-02T16:12:06.912Z,31.63
2024-03-02T16:14:35.791Z,32.80
2024-03-02T16:17:05.834Z,35.27
2024-03-02T16:19:35.565Z,32.57
2024-03-02T16:22:05.890Z,34.07
2024-03-02T16:24:36.485Z,32.57
2024-03-02T16:27:06.856Z,32.13
2024-03-02T16:29:35.887Z,30.63
2024-03-02T16:32:04.849Z,32.13
2024-03-02T16:34:33.596Z,33.47
2024-03-02T16:37:01.866Z,28.33
2024-03-02T16:39:31.201Z,33.53
2024-03-02T16:42:00.011Z,29.83
2024-03-02T16:44:29.729Z,34.27
2024-03-02T16:46:58.003Z,33.07
2024-03-02T16:49:28.645Z,32.53
2024-03-02T16:51:57.188Z,30.93
2024-03-02T16:54:28.755Z,33.93
2024-03-02T16:56:57.968Z,31.43
2024-03-02T16:59:26.134Z,33.83
2024-03-02T17:01:57.689Z,32.50
2024-03-02T17:04:27.898Z,32.30
2024-03-02T17:06:56.243Z,37.17
2024-03-02T17:09:24.456Z,32.27
2024-03-02T17:11:57.451Z,35.13
2024-03-02T17:14:28.755Z,42.17
2024-03-02T17:16:58.393Z,37.43
2024-03-02T17:19:26.924Z,34.00
2024-03-02T17:21:55.125Z,39.50
2024-03-02T17:24:25.291Z,35.20
2024-03-02T17:26:54.917Z,37.13
2024-03-02T17:29:23.887Z,33.00
2024-03-02T17:31:52.939Z,35.00
2024-03-02T17:34:22.498Z,36.90
2024-03-02T17:36:57.722Z,37.50
2024-03-02T17:39:26.915Z,34.93
2024-03-02T17:41:55.185Z,36.37
2024-03-02T17:44:24.919Z,35.17
2024-03-02T17:46:53.711Z,32.27
2024-03-02T17:49:25.644Z,36.67
2024-03-02T17:51:53.868Z,31.33
2024-03-02T17:54:22.388Z,32.77
2024-03-02T17:56:50.556Z,30.10
2024-03-02T17:59:19.797Z,32.53
2024-03-02T18:01:50.042Z,32.70
2024-03-02T18:04:22.043Z,31.13
2024-03-02T18:06:52.256Z,32.60
2024-03-02T18:09:20.541Z,29.20
2024-03-02T18:11:48.914Z,30.63
2024-03-02T18:14:17.913Z,28.57
2024-03-02T18:16:46.025Z,36.30
2024-03-02T18:19:15.030Z,47.10
2024-03-02T18:21:43.359Z,36.23
2024-03-02T18:24:12.955Z,29.60
2024-03-02T18:26:45.515Z,30.00
2024-03-02T18:29:18.915Z,30.23
2024-03-02T18:31:47.921Z,29.27
2024-03-02T18:34:16.159Z,31.90
2024-03-02T18:36:44.593Z,29.43
2024-03-02T18:39:14.990Z,28.47
2024-03-02T18:41:45.904Z,33.03
2024-03-02T18:44:14.320Z,29.37
2024-03-02T18:46:42.664Z,34.70
2024-03-02T18:49:11.585Z,33.17
2024-03-02T18:51:40.509Z,29.43
2024-03-02T18:54:09.109Z,29.30
2024-03-02T18:56:38.849Z,29.70
2024-03-02T18:59:07.078Z,27.30
2024-03-02T19:01:36.029Z,29.37
2024-03-02T19:04:05.494Z,30.23
2024-03-02T19:06:38.123Z,30.13
2024-03-02T19:09:06.407Z,32.33
2024-03-02T19:11:34.638Z,28.23
2024-03-02T19:14:05.053Z,29.40
2024-03-02T19:16:37.570Z,33.80
2024-03-02T19:19:06.272Z,28.83
2024-03-02T19:21:36.028Z,29.27
2024-03-02T19:24:04.325Z,30.77
2024-03-02T19:26:32.918Z,28.73
2024-03-02T19:29:01.555Z,30.23
2024-03-02T19:31:31.080Z,31.70
2024-03-02T19:34:01.045Z,34.90
2024-03-02T19:36:29.240Z,29.93
2024-03-02T19:38:58.420Z,33.30
2024-03-02T19:41:26.644Z,29.30
2024-03-02T19:43:56.229Z,34.90
2024-03-02T19:46:24.513Z,31.67
2024-03-02T19:48:54.973Z,30.87
2024-03-02T19:51:27.004Z,32.13
2024-03-02T19:53:55.160Z,35.23
2024-03-02T19:56:23.621Z,39.37
2024-03-02T19:58:52.052Z,32.07
2024-03-02T20:01:20.892Z,31.57
2024-03-02T20:03:52.058Z,27.27
2024-03-02T20:06:22.035Z,32.20
2024-03-02T20:08:50.291Z,33.33
2024-03-02T20:11:19.036Z,29.57
2024-03-02T20:13:49.619Z,31.67
2024-03-02T20:16:20.385Z,27.70
2024-03-02T20:18:49.934Z,33.87
2024-03-02T20:21:18.232Z,32.03
2024-03-02T20:23:47.839Z,29.60
2024-03-02T20:26:24.153Z,30.70
2024-03-02T20:28:53.411Z,36.20
2024-03-02T20:31:21.792Z,29.70
2024-03-02T20:33:52.443Z,31.37
2024-03-02T20:36:20.698Z,30.77
2024-03-02T20:38:50.355Z,30.37
2024-03-02T20:41:21.000Z,30.47
2024-03-02T20:43:49.436Z,44.17
2024-03-02T20:46:22.024Z,38.03
2024-03-02T20:48:50.374Z,28.47
2024-03-02T20:51:18.814Z,34.00
2024-03-02T20:53:49.179Z,29.53
2024-03-02T20:56:18.139Z,30.37
2024-03-02T20:58:49.051Z,29.87
2024-03-02T21:01:18.783Z,26.13
2024-03-02T21:03:49.043Z,29.67
2024-03-02T21:06:17.379Z,29.13
2024-03-02T21:08:49.583Z,30.37
2024-03-02T21:11:19.372Z,31.80
2024-03-02T21:13:49.551Z,28.17
2024-03-02T21:16:18.453Z,28.17
2024-03-02T21:18:48.052Z,29.93
2024-03-02T21:21:16.337Z,60.53
2024-03-02T21:23:44.479Z,34.60
2024-03-02T21:26:13.083Z,29.27
2024-03-02T21:28:42.687Z,31.30
2024-03-02T21:31:18.059Z,26.77
2024-03-02T21:33:46.419Z,32.90
2024-03-02T21:36:15.229Z,29.47
2024-03-02T21:38:43.948Z,27.97
2024-03-02T21:41:12.152Z,29.93
2024-03-02T21:43:43.989Z,29.17
2024-03-02T21:46:13.776Z,28.57
2024-03-02T21:48:43.042Z,28.43
2024-03-02T21:51:17.579Z,29.17
2024-03-02T21:53:48.389Z,25.27
2024-03-02T21:56:18.021Z,28.73
2024-03-02T21:58:47.660Z,29.97
2024-03-02T22:01:15.940Z,25.60
2024-03-02T22:03:50.286Z,26.43
2024-03-02T22:06:18.724Z,26.27
2024-03-02T22:08:47.024Z,30.30
2024-03-02T22:11:19.106Z,29.17
2024-03-02T22:13:50.353Z,26.23
2024-03-02T22:16:19.139Z,27.07
2024-03-02T22:18:47.380Z,34.70
2024-03-02T22:21:16.089Z,32.00
2024-03-02T22:23:44.348Z,26.63
2024-03-02T22:26:14.073Z,25.57
2024-03-02T22:28:43.708Z,22.60
2024-03-02T22:31:14.066Z,26.60
2024-03-02T22:33:42.246Z,23.10
2024-03-02T22:36:11.318Z,23.30
2024-03-02T22:38:40.801Z,24.93
2024-03-02T22:41:08.947Z,23.10
2024-03-02T22:43:42.062Z,28.57
2024-03-02T22:46:11.067Z,22.80
2024-03-02T22:48:44.200Z,25.83
2024-03-02T22:51:13.178Z,24.13
2024-03-02T22:53:41.309Z,26.87
2024-03-02T22:56:09.800Z,24.07
2024-03-02T22:58:39.002Z,37.97
2024-03-02T23:01:10.189Z,26.47
2024-03-02T23:03:41.141Z,24.30
2024-03-02T23:06:10.361Z,22.70
2024-03-02T23:08:38.681Z,23.03
2024-03-02T23:11:07.701Z,24.20
2024-03-02T23:13:37.826Z,22.27
2024-03-02T23:16:07.100Z,21.83
2024-03-02T23:18:37.529Z,25.03
2024-03-02T23:21:08.042Z,25.70
2024-03-02T23:23:36.862Z,26.03
2024-03-02T23:26:06.358Z,24.17
2024-03-02T23:28:35.036Z,23.40
2024-03-02T23:31:03.250Z,23.23
2024-03-02T23:33:32.600Z,25.23
2024-03-02T23:36:01.108Z,31.20
2024-03-02T23:38:30.688Z,24.37
2024-03-02T23:41:12.054Z,21.43
2024-03-02T23:43:39.550Z,24.73
2024-03-02T23:46:13.256Z,21.63
2024-03-02T23:48:41.800Z,27.60
2024-03-02T23:53:52.969Z,20.20
2024-03-02T23:56:20.209Z,21.53
2024-03-02T23:58:51.235Z,20.63
